Bookmark and Share
Track history (hours):
 

Ischia Jet

Last reported at 2014-Apr-24 16:20 UTC. Time now 2014-Apr-25 06:09 UTC.
Position N 40°36' E 014°31'.

Length 42 m; draft 1.2 m.

Type: Passenger vessel. MMSI: 247048700.

NotesDate/timePositionNaut miles runAvg speedWind from/ knotsBaromVisibWave heightAir tempDewpointWater temp
2014-Apr-24 16:20N 40°36' E 014°31'1214.3
2014-Apr-24 15:29N 40°34' E 014°16'7 7.1
2014-Apr-24 14:33N 40°38' E 014°23'8 7.5
2014-Apr-24 13:33N 40°33' E 014°14'17 8.1
2014-Apr-24 11:29N 40°50' E 014°16'1715.8
2014-Apr-24 10:25N 40°33' E 014°14'0 0.0
2014-Apr-24 09:31N 40°33' E 014°14'0 0.0
2014-Apr-24 08:16N 40°33' E 014°14'6 0.4
2014-Apr-23 15:31N 40°34' E 014°23'3 3.6
2014-Apr-23 14:33N 40°38' E 014°23'8 7.5
2014-Apr-23 13:33N 40°33' E 014°15'16 7.5
2014-Apr-23 11:25N 40°49' E 014°17'1616.8
2014-Apr-23 10:28N 40°33' E 014°14'1 0.6
2014-Apr-23 08:10N 40°33' E 014°16'5 8.0
2014-Apr-23 07:30N 40°34' E 014°23'6 0.4
2014-Apr-22 16:05N 40°37' E 014°29'916.2
2014-Apr-22 15:33N 40°34' E 014°19'5 5.2
2014-Apr-22 14:33N 40°38' E 014°23'6 6.2
2014-Apr-22 13:33N 40°35' E 014°15'1514.7
2014-Apr-22 12:33N 40°50' E 014°16'1714.7
2014-Apr-22 11:25N 40°33' E 014°14'2 1.9
2014-Apr-22 10:33N 40°35' E 014°15'1512.7
2014-Apr-22 09:22N 40°50' E 014°16'1720.0
2014-Apr-22 08:32N 40°33' E 014°14'1212.0
2014-Apr-22 07:33N 40°37' E 014°29'0 0.0
2014-Apr-21 16:15N 40°37' E 014°29'1013.7
2014-Apr-21 15:33N 40°34' E 014°18'2 1.8
2014-Apr-21 14:33N 40°36' E 014°17'3 3.1
2014-Apr-21 13:33N 40°33' E 014°14'0 0.3
2014-Apr-21 12:31N 40°34' E 014°14'0 0.0
2014-Apr-21 11:31N 40°34' E 014°14'6 5.9
2014-Apr-21 10:33N 40°39' E 014°16'10 8.1
2014-Apr-21 09:18N 40°49' E 014°17'1619.6
2014-Apr-21 08:29N 40°33' E 014°14'1 0.1
2014-Apr-20 15:25N 40°34' E 014°16'3 3.5
2014-Apr-20 14:32N 40°36' E 014°18'4 4.1
2014-Apr-20 13:31N 40°33' E 014°14'0 0.0
2014-Apr-20 12:31N 40°33' E 014°14'0 0.0
2014-Apr-20 11:31N 40°33' E 014°14'8 8.2
2014-Apr-20 10:33N 40°41' E 014°18'9 7.8
2014-Apr-20 09:25N 40°50' E 014°17'1615.5
2014-Apr-20 08:22N 40°33' E 014°14'1213.3
2014-Apr-20 07:27N 40°37' E 014°30'7 0.2
2014-Apr-18 15:32N 40°34' E 014°21'4 3.9
2014-Apr-18 14:32N 40°38' E 014°23'8 7.8
2014-Apr-18 13:33N 40°33' E 014°14'1715.8
2014-Apr-18 12:29N 40°50' E 014°15'1 0.7
2014-Apr-18 11:26N 40°50' E 014°16'1718.0
2014-Apr-18 10:30N 40°33' E 014°14'1 1.0
2014-Apr-18 09:24N 40°33' E 014°16'1 1.3
2014-Apr-18 08:34N 40°33' E 014°14'2 0.1
2014-Apr-17 15:28N 40°34' E 014°17'6 6.3
2014-Apr-17 14:33N 40°38' E 014°23'7 7.5
2014-Apr-17 13:33N 40°34' E 014°15'16 7.7
2014-Apr-17 11:25N 40°50' E 014°17'1717.3
2014-Apr-17 10:27N 40°33' E 014°14'0 0.0
2014-Apr-17 08:27N 40°33' E 014°14'2 0.0
2014-Apr-15 15:33N 40°34' E 014°17'6 5.9
2014-Apr-15 14:33N 40°38' E 014°22'4 2.1
2014-Apr-15 12:32N 40°36' E 014°17'9 4.5
2014-Apr-15 10:34N 40°45' E 014°17'12 5.6
2014-Apr-15 08:30N 40°34' E 014°14'  

Dump ship's entire track history

sailing weather and tide predictions

Ischia Jet — IOBI — position and weather